Rockaway Park, New York
Current Conditions -  °F | °C
As of 2:51 AM on Monday 24 Nov 2014 (Local Time) from KJFK Reporting Station
Moderate Rain Moderate Rain  
Wind Chill: 59°   Ceiling: 2400
Heat Index: 59°   Visibility: 5mi
Dew Point: 55°   Wind: 16mph
Humidity: 87%   Direction: 130°SE
Pressure: 29.85"   Gusts: 24mph
Location:  40.58°N, 73.84°W
Report Text: KJFK 240751Z 13014G21KT 5SM RA BR OVC024 15/13 A2985 RMK AO2 PRESFR SLP108 P0004 T01500128 $
Loading
Personal Weather Stations






























Interactive Weather Map New forecast layout! Learn more

10-Day Weather Forecast

Advertisements
Track Severe Weather on mobile